createdAt,value
2018-10-19T00:04:05.615Z,13.30
2018-10-19T00:09:10.595Z,13.20
2018-10-19T00:14:14.160Z,13.20
2018-10-19T00:19:17.778Z,13.20
2018-10-19T00:24:21.495Z,13.00
2018-10-19T00:29:25.185Z,12.90
2018-10-19T00:34:28.822Z,13.00
2018-10-19T00:39:32.483Z,12.90
2018-10-19T00:44:36.150Z,12.80
2018-10-19T00:49:39.791Z,12.80
2018-10-19T00:54:43.613Z,12.80
2018-10-19T00:59:47.237Z,12.80
2018-10-19T01:04:50.948Z,12.80
2018-10-19T01:09:54.579Z,12.80
2018-10-19T01:14:58.238Z,12.90
2018-10-19T01:20:01.876Z,13.00
2018-10-19T01:25:06.143Z,12.90
2018-10-19T01:30:10.277Z,12.80
2018-10-19T01:35:14.101Z,12.80
2018-10-19T01:40:17.592Z,12.80
2018-10-19T01:45:21.208Z,12.70
2018-10-19T01:50:24.835Z,12.60
2018-10-19T01:55:28.559Z,12.60
2018-10-19T02:00:32.195Z,12.60
2018-10-19T02:05:36.096Z,12.50
2018-10-19T02:10:40.331Z,12.40
2018-10-19T02:15:44.055Z,12.40
2018-10-19T02:20:47.657Z,12.40
2018-10-19T02:25:51.396Z,12.30
2018-10-19T02:30:55.013Z,12.30
2018-10-19T02:35:58.723Z,12.30
2018-10-19T02:41:02.406Z,12.20
2018-10-19T02:46:06.090Z,12.20
2018-10-19T02:51:09.855Z,12.20
2018-10-19T02:56:13.460Z,12.20
2018-10-19T03:01:17.123Z,12.20
2018-10-19T03:06:20.768Z,12.20
2018-10-19T03:11:24.502Z,12.20
2018-10-19T03:16:28.077Z,12.10
2018-10-19T03:21:31.693Z,12.10
2018-10-19T03:26:35.323Z,12.10
2018-10-19T03:31:38.994Z,11.90
2018-10-19T03:36:42.733Z,11.70
2018-10-19T03:41:46.365Z,11.80
2018-10-19T03:46:49.987Z,11.70
2018-10-19T03:51:53.890Z,11.70
2018-10-19T03:56:57.568Z,11.70
2018-10-19T04:02:01.186Z,11.70
2018-10-19T04:07:05.271Z,11.70
2018-10-19T04:12:08.921Z,11.70
2018-10-19T04:17:12.787Z,11.60
2018-10-19T04:22:16.336Z,11.60
2018-10-19T04:27:20.131Z,11.50
2018-10-19T04:32:27.228Z,11.40
2018-10-19T04:37:30.879Z,11.50
2018-10-19T04:42:34.590Z,11.30
2018-10-19T04:47:38.291Z,11.30
2018-10-19T04:52:41.848Z,11.30
2018-10-19T04:57:45.567Z,11.30
2018-10-19T05:02:50.304Z,11.10
2018-10-19T05:07:53.933Z,11.10
2018-10-19T05:12:57.552Z,11.10
2018-10-19T05:18:01.155Z,11.10
2018-10-19T05:23:05.310Z,11.10
2018-10-19T05:28:08.956Z,11.20
2018-10-19T05:33:12.624Z,11.00
2018-10-19T05:38:16.292Z,11.00
2018-10-19T05:43:19.960Z,11.10
2018-10-19T05:48:24.000Z,11.10
2018-10-19T05:53:27.707Z,11.30
2018-10-19T05:58:31.498Z,11.20
2018-10-19T06:03:35.946Z,11.20
2018-10-19T06:08:39.606Z,11.10
2018-10-19T06:13:43.319Z,11.20
2018-10-19T06:18:46.904Z,11.20
2018-10-19T06:23:50.542Z,11.20
2018-10-19T06:28:54.446Z,11.10
2018-10-19T06:33:58.237Z,11.10
2018-10-19T06:39:01.883Z,11.10
2018-10-19T06:44:05.856Z,11.10
2018-10-19T06:49:09.547Z,11.10
2018-10-19T06:54:13.837Z,11.00
2018-10-19T06:59:17.584Z,11.00
2018-10-19T07:04:21.670Z,11.30
2018-10-19T07:09:25.471Z,11.30
2018-10-19T07:14:29.163Z,11.30
2018-10-19T07:19:32.844Z,11.30
2018-10-19T07:24:36.540Z,11.50
2018-10-19T07:29:40.239Z,11.80
2018-10-19T07:34:43.971Z,11.70
2018-10-19T07:39:47.604Z,11.80
2018-10-19T07:44:51.323Z,11.80
2018-10-19T07:49:55.020Z,11.80
2018-10-19T07:54:58.584Z,11.90
2018-10-19T08:00:02.223Z,12.10
2018-10-19T08:05:06.682Z,12.30
2018-10-19T08:10:10.872Z,12.50
2018-10-19T08:15:14.560Z,13.10
2018-10-19T08:20:18.230Z,13.50
2018-10-19T08:25:21.810Z,13.40
2018-10-19T08:30:25.433Z,13.80
2018-10-19T08:35:29.073Z,13.80
2018-10-19T08:40:32.872Z,13.60
2018-10-19T08:45:36.556Z,14.10
2018-10-19T08:50:40.339Z,14.80
2018-10-19T08:55:43.995Z,15.30
2018-10-19T09:00:47.648Z,15.10
2018-10-19T09:05:51.352Z,14.60
2018-10-19T09:10:55.066Z,14.80
2018-10-19T09:15:59.080Z,14.70
2018-10-19T09:21:02.816Z,14.90
2018-10-19T09:26:06.423Z,14.90
2018-10-19T09:31:10.190Z,15.00
2018-10-19T09:36:13.892Z,15.60
2018-10-19T09:41:17.487Z,16.20
2018-10-19T09:46:21.055Z,16.30
2018-10-19T09:51:24.694Z,15.60
2018-10-19T09:56:28.435Z,15.60
2018-10-19T10:01:32.360Z,16.40
2018-10-19T10:06:35.996Z,17.50
2018-10-19T10:11:39.899Z,19.30
2018-10-19T10:16:43.617Z,20.70
2018-10-19T10:21:47.242Z,20.40
2018-10-19T10:26:50.866Z,21.00
2018-10-19T10:31:54.505Z,22.60
2018-10-19T10:36:58.204Z,23.90
2018-10-19T10:42:01.841Z,23.90
2018-10-19T10:47:05.818Z,23.50
2018-10-19T10:52:09.342Z,23.60
2018-10-19T10:57:12.932Z,23.80
2018-10-19T11:02:16.588Z,24.00
2018-10-19T11:07:20.473Z,22.80
2018-10-19T11:12:24.842Z,20.90
2018-10-19T11:17:28.559Z,22.70
2018-10-19T11:22:32.227Z,24.20
2018-10-19T11:27:35.855Z,25.10
2018-10-19T11:32:39.484Z,27.50
2018-10-19T11:37:43.240Z,26.80
2018-10-19T11:42:46.736Z,27.80
2018-10-19T11:47:50.468Z,29.20
2018-10-19T11:52:54.189Z,30.70
2018-10-19T11:57:57.826Z,29.80
2018-10-19T12:03:01.551Z,28.40
2018-10-19T12:08:05.538Z,27.50
2018-10-19T12:13:10.365Z,24.90
2018-10-19T12:18:14.209Z,23.00
2018-10-19T12:23:18.333Z,20.50
2018-10-19T12:28:23.025Z,20.00
2018-10-19T12:33:26.836Z,19.00
2018-10-19T12:38:30.951Z,18.10
2018-10-19T12:43:34.647Z,17.30
2018-10-19T12:48:38.275Z,17.00
2018-10-19T12:53:42.003Z,16.90
2018-10-19T12:58:45.729Z,16.70
2018-10-19T13:03:49.356Z,16.70
2018-10-19T13:08:53.157Z,16.90
2018-10-19T13:13:56.800Z,17.00
2018-10-19T13:19:00.463Z,16.70
2018-10-19T13:24:04.675Z,16.50
2018-10-19T13:29:08.272Z,16.30
2018-10-19T13:34:11.957Z,16.60
2018-10-19T13:39:15.606Z,16.40
2018-10-19T13:44:19.196Z,16.50
2018-10-19T13:49:23.027Z,16.60
2018-10-19T13:54:27.464Z,16.80
2018-10-19T13:59:31.167Z,17.00
2018-10-19T14:04:35.021Z,16.80
2018-10-19T14:09:39.018Z,16.70
2018-10-19T14:14:42.783Z,16.80
2018-10-19T14:19:46.583Z,16.80
2018-10-19T14:24:50.397Z,16.60
2018-10-19T14:29:54.026Z,16.80
2018-10-19T14:34:57.884Z,16.60
2018-10-19T14:40:01.464Z,17.30
2018-10-19T14:45:06.250Z,19.10
2018-10-19T14:50:11.763Z,18.70
2018-10-19T14:55:16.893Z,17.40
2018-10-19T15:00:20.528Z,17.10
2018-10-19T15:05:24.232Z,17.50
2018-10-19T15:10:28.117Z,18.90
2018-10-19T15:15:31.560Z,21.30
2018-10-19T15:20:35.203Z,23.20
2018-10-19T15:25:38.888Z,24.30
2018-10-19T15:30:42.527Z,25.00
2018-10-19T15:35:46.344Z,24.20
2018-10-19T15:40:50.035Z,21.60
2018-10-19T15:45:53.767Z,18.70
2018-10-19T15:50:57.568Z,16.80
2018-10-19T15:56:01.168Z,16.00
2018-10-19T16:01:05.175Z,15.30
2018-10-19T16:06:08.877Z,15.00
2018-10-19T16:11:12.485Z,14.70
2018-10-19T16:16:16.163Z,14.50
2018-10-19T16:21:19.819Z,14.30
2018-10-19T16:26:23.539Z,14.10
2018-10-19T16:31:27.405Z,14.00
2018-10-19T16:36:31.116Z,13.70
2018-10-19T16:41:34.770Z,13.60
2018-10-19T16:46:38.375Z,13.50
2018-10-19T16:51:42.016Z,13.50
2018-10-19T16:56:45.692Z,13.40
2018-10-19T17:01:49.355Z,13.30
2018-10-19T17:06:52.983Z,13.20
2018-10-19T17:11:56.734Z,13.20
2018-10-19T17:17:00.491Z,13.10
2018-10-19T17:22:04.380Z,13.00
2018-10-19T17:27:08.450Z,12.80
2018-10-19T17:32:12.101Z,12.60
2018-10-19T17:37:16.355Z,12.50
2018-10-19T17:42:20.069Z,12.50
2018-10-19T17:47:23.828Z,12.50
2018-10-19T17:52:27.470Z,12.50
2018-10-19T17:57:31.089Z,12.50
2018-10-19T18:02:34.772Z,12.40
2018-10-19T18:07:38.874Z,12.30
2018-10-19T18:12:42.459Z,12.30
2018-10-19T18:17:46.104Z,12.20
2018-10-19T18:22:49.874Z,12.10
2018-10-19T18:27:53.490Z,11.90
2018-10-19T18:32:57.052Z,11.80
2018-10-19T18:38:00.775Z,11.80
2018-10-19T18:43:04.613Z,11.80
2018-10-19T18:48:08.214Z,11.70
2018-10-19T18:53:12.064Z,11.60
2018-10-19T18:58:15.653Z,11.40
2018-10-19T19:03:19.279Z,11.20
2018-10-19T19:08:22.915Z,11.20
2018-10-19T19:13:29.151Z,11.20
2018-10-19T19:18:32.874Z,11.20
2018-10-19T19:23:40.752Z,11.20
2018-10-19T19:28:44.389Z,11.10
2018-10-19T19:33:53.612Z,11.10
2018-10-19T19:38:57.256Z,11.10
2018-10-19T19:44:00.953Z,11.00
2018-10-19T19:49:10.694Z,11.00
2018-10-19T19:54:14.352Z,10.90
2018-10-19T19:59:18.132Z,10.80
2018-10-19T20:04:21.645Z,10.70
2018-10-19T20:09:25.336Z,10.70
2018-10-19T20:14:29.060Z,10.60
2018-10-19T20:19:32.719Z,10.60
2018-10-19T20:24:36.379Z,10.50
2018-10-19T20:29:39.996Z,10.50
2018-10-19T20:34:43.656Z,10.40
2018-10-19T20:39:47.320Z,10.40
2018-10-19T20:44:50.971Z,10.30
2018-10-19T20:49:54.643Z,10.20
2018-10-19T20:54:58.234Z,10.10
2018-10-19T21:00:01.857Z,10.10
2018-10-19T21:05:06.612Z,10.00
2018-10-19T21:10:11.500Z,9.90
2018-10-19T21:15:15.145Z,9.80
2018-10-19T21:20:18.770Z,9.80
2018-10-19T21:25:22.407Z,9.80
2018-10-19T21:30:26.096Z,9.60
2018-10-19T21:35:29.872Z,9.60
2018-10-19T21:40:33.531Z,9.60
2018-10-19T21:45:37.500Z,9.50
2018-10-19T21:50:41.766Z,9.50
2018-10-19T21:55:45.772Z,9.40
2018-10-19T22:00:49.572Z,9.40
2018-10-19T22:05:53.674Z,9.30
2018-10-19T22:10:59.083Z,9.30
2018-10-19T22:16:02.676Z,9.10
2018-10-19T22:21:06.299Z,9.00
2018-10-19T22:26:15.378Z,9.00
2018-10-19T22:31:18.947Z,8.90
2018-10-19T22:36:22.574Z,8.90
2018-10-19T22:41:26.180Z,8.90
2018-10-19T22:46:29.807Z,8.90
2018-10-19T22:51:33.432Z,8.80
2018-10-19T22:56:37.095Z,8.80
2018-10-19T23:01:40.711Z,8.70
2018-10-19T23:06:44.376Z,8.70
2018-10-19T23:11:47.999Z,8.70
2018-10-19T23:16:51.632Z,8.60
2018-10-19T23:21:55.272Z,8.60
2018-10-19T23:26:59.063Z,8.60
2018-10-19T23:32:02.691Z,8.50
2018-10-19T23:37:06.358Z,8.40
2018-10-19T23:42:10.023Z,8.40
2018-10-19T23:47:13.753Z,8.40
2018-10-19T23:52:17.350Z,8.40
2018-10-19T23:57:21.074Z,8.40
